Big Bear Station Historical Data
Daily Summary for July 3, 2019 Units:  English    Metric   Both
Next Day »
Daily Weekly Monthly Yearly Custom
  High: Low: Average:
Temperature: 77.7 °F 47.8 °F 61.6 °F
Dew Point: 49.6 °F 27.8 °F 36.9 °F
Humidity: 68% 18% 42%
Wind Speed: 5.3mph 0mph 0.2mph
Wind Gust: -999mph - -
Wind- - SSW
Pressure: 23.51 in 23.47 in -
Precipitation: 0 in    
Historical Graphs
 
 
Tabular Data for July 3, 2019
Time Temperature Dew Point Pressure Wind Wind Speed Wind Gust Humidity Rainfall Rate (Hourly)
00:11 52.7 °F 27.8 °F 23.50 in Calm   -999 mph 38% 0.00 in
00:27 53.4 °F 30.3 °F 23.50 in Calm   -999 mph 41% 0.00 in
00:42 53.2 °F 30.7 °F 23.50 in Calm   -999 mph 42% 0.00 in
00:57 51.6 °F 30.9 °F 23.50 in Calm   -999 mph 45% 0.00 in
01:12 50.7 °F 30.7 °F 23.49 in Calm   -999 mph 46% 0.00 in
01:27 50 °F 31.1 °F 23.49 in Calm   -999 mph 48% 0.00 in
01:43 49.5 °F 31.1 °F 23.48 in Calm   -999 mph 49% 0.00 in
01:58 50.5 °F 30.5 °F 23.48 in Calm   -999 mph 46% 0.00 in
02:13 52 °F 30.2 °F 23.48 in Calm   -999 mph 43% 0.00 in
02:28 53.1 °F 31.2 °F 23.48 in Calm   -999 mph 43% 0.00 in
02:43 52 °F 31.9 °F 23.47 in Calm   -999 mph 46% 0.00 in
02:59 49.6 °F 30.7 °F 23.47 in Calm   -999 mph 48% 0.00 in
03:14 48.2 °F 30.9 °F 23.47 in Calm   -999 mph 51% 0.00 in
03:29 47.8 °F 30.5 °F 23.47 in Calm   -999 mph 51% 0.00 in
03:44 48 °F 30.7 °F 23.47 in Calm   -999 mph 51% 0.00 in
03:59 47.8 °F 31.5 °F 23.47 in Calm   -999 mph 53% 0.00 in
04:15 48.6 °F 32.2 °F 23.47 in Calm   -999 mph 53% 0.00 in
04:30 48.2 °F 31.9 °F 23.47 in Calm   -999 mph 53% 0.00 in
04:45 48.4 °F 32 °F 23.47 in Calm   -999 mph 53% 0.00 in
05:00 48.6 °F 32.7 °F 23.47 in Calm   -999 mph 54% 0.00 in
05:16 48.6 °F 33.2 °F 23.47 in Calm   -999 mph 55% 0.00 in
05:31 50.2 °F 33.2 °F 23.47 in Calm   -999 mph 52% 0.00 in
05:46 50.4 °F 32.9 °F 23.48 in Calm   -999 mph 51% 0.00 in
06:01 51.4 °F 33.9 °F 23.48 in Calm   -999 mph 51% 0.00 in
06:16 52.7 °F 34.6 °F 23.48 in Calm   -999 mph 50% 0.00 in
06:32 53.2 °F 35 °F 23.48 in Calm   -999 mph 50% 0.00 in
06:47 54.1 °F 35.9 °F 23.48 in Calm   -999 mph 50% 0.00 in
07:02 54.5 °F 36.7 °F 23.48 in Calm   -999 mph 51% 0.00 in
07:17 54.9 °F 36.6 °F 23.49 in Calm   -999 mph 50% 0.00 in
07:32 56.3 °F 35.8 °F 23.49 in Calm   -999 mph 46% 0.00 in
07:48 56.7 °F 36.7 °F 23.50 in Calm   -999 mph 47% 0.00 in
08:03 57.7 °F 36.5 °F 23.50 in Calm   -999 mph 45% 0.00 in
08:18 59.2 °F 35.5 °F 23.50 in Calm   -999 mph 41% 0.00 in
08:33 60.4 °F 36 °F 23.50 in Calm   -999 mph 40% 0.00 in
08:48 61.3 °F 36.8 °F 23.50 in Calm   -999 mph 40% 0.00 in
09:04 62.1 °F 36.2 °F 23.51 in Calm   -999 mph 38% 0.00 in
09:19 62.8 °F 37.5 °F 23.50 in Calm   -999 mph 39% 0.00 in
09:34 64 °F 33.5 °F 23.50 in Calm   -999 mph 32% 0.00 in
09:49 64.8 °F 35.8 °F 23.50 in Calm   -999 mph 34% 0.00 in
10:05 66.2 °F 36.2 °F 23.50 in Calm   -999 mph 33% 0.00 in
10:20 67.1 °F 37 °F 23.50 in Calm   -999 mph 33% 0.00 in
10:35 67.8 °F 34.4 °F 23.50 in Calm   -999 mph 29% 0.00 in
10:50 68 °F 30.9 °F 23.50 in Calm   -999 mph 25% 0.00 in
11:05 69.1 °F 33.7 °F 23.50 in Calm   -999 mph 27% 0.00 in
11:21 70.3 °F 34.7 °F 23.50 in Calm   -999 mph 27% 0.00 in
11:36 71.8 °F 33.1 °F 23.50 in NW 2.7 mph -999 mph 24% 0.00 in
11:51 72.5 °F 34.7 °F 23.50 in Calm   -999 mph 25% 0.00 in
12:06 73.2 °F 34.2 °F 23.50 in NW 5.3 mph -999 mph 24% 0.00 in
12:21 74.5 °F 36.4 °F 23.50 in WNW 3.2 mph -999 mph 25% 0.00 in
12:37 74.8 °F 37.6 °F 23.50 in Calm   -999 mph 26% 0.00 in
12:52 75.4 °F 38.1 °F 23.50 in Calm   -999 mph 26% 0.00 in
13:07 73.2 °F 36.3 °F 23.50 in Calm   -999 mph 26% 0.00 in
13:22 73.9 °F 35.9 °F 23.50 in Calm   -999 mph 25% 0.00 in
13:37 76.6 °F 39.2 °F 23.50 in Calm   -999 mph 26% 0.00 in
13:53 74.1 °F 37 °F 23.49 in Calm   -999 mph 26% 0.00 in
14:08 75.7 °F 36.4 °F 23.49 in Calm   -999 mph 24% 0.00 in
14:23 77.2 °F 36.5 °F 23.49 in Calm   -999 mph 23% 0.00 in
14:38 77.4 °F 30.6 °F 23.49 in Calm   -999 mph 18% 0.00 in
14:54 77.7 °F 33.4 °F 23.48 in Calm   -999 mph 20% 0.00 in
15:09 75 °F 40.6 °F 23.48 in Calm   -999 mph 29% 0.00 in
15:24 74.3 °F 40.9 °F 23.48 in NNE 1.7 mph -999 mph 30% 0.00 in
15:39 73.9 °F 43.8 °F 23.48 in Calm   -999 mph 34% 0.00 in
15:54 73.6 °F 42.7 °F 23.48 in Calm   -999 mph 33% 0.00 in
16:10 74.1 °F 39.8 °F 23.48 in ENE 4.2 mph -999 mph 29% 0.00 in
16:25 73 °F 39.7 °F 23.48 in Calm   -999 mph 30% 0.00 in
16:40 75 °F 38.8 °F 23.48 in Calm   -999 mph 27% 0.00 in
16:55 76.1 °F 44.1 °F 23.48 in Calm   -999 mph 32% 0.00 in
17:10 75.6 °F 46.8 °F 23.48 in Calm   -999 mph 36% 0.00 in
17:26 75 °F 45.5 °F 23.48 in Calm   -999 mph 35% 0.00 in
17:41 74.7 °F 45.2 °F 23.47 in Calm   -999 mph 35% 0.00 in
17:56 74.7 °F 46 °F 23.48 in Calm   -999 mph 36% 0.00 in
18:11 73.8 °F 47.3 °F 23.48 in Calm   -999 mph 39% 0.00 in
18:26 72.5 °F 48.1 °F 23.48 in Calm   -999 mph 42% 0.00 in
18:42 71.4 °F 48.4 °F 23.48 in Calm   -999 mph 44% 0.00 in
18:57 69.6 °F 49.6 °F 23.48 in Calm   -999 mph 49% 0.00 in
19:12 67.3 °F 49.6 °F 23.48 in Calm   -999 mph 53% 0.00 in
19:27 64.2 °F 49.1 °F 23.48 in Calm   -999 mph 58% 0.00 in
19:42 60.6 °F 48.8 °F 23.48 in Calm   -999 mph 65% 0.00 in
19:58 59.2 °F 48.6 °F 23.48 in Calm   -999 mph 68% 0.00 in
20:13 58.5 °F 46.8 °F 23.48 in Calm   -999 mph 65% 0.00 in
20:28 57.2 °F 46.3 °F 23.48 in Calm   -999 mph 67% 0.00 in
20:43 56.3 °F 41.3 °F 23.48 in Calm   -999 mph 57% 0.00 in
20:59 55.9 °F 42.2 °F 23.48 in Calm   -999 mph 60% 0.00 in
21:14 55.8 °F 39.4 °F 23.48 in Calm   -999 mph 54% 0.00 in
21:29 56.3 °F 32.3 °F 23.49 in Calm   -999 mph 40% 0.00 in
21:44 55.6 °F 32.9 °F 23.49 in Calm   -999 mph 42% 0.00 in
21:59 55.2 °F 33.1 °F 23.49 in Calm   -999 mph 43% 0.00 in
22:15 54.3 °F 32.8 °F 23.49 in Calm   -999 mph 44% 0.00 in
22:30 53.8 °F 33.5 °F 23.49 in Calm   -999 mph 46% 0.00 in
22:45 53.8 °F 35.1 °F 23.49 in Calm   -999 mph 49% 0.00 in
23:00 53.6 °F 39.6 °F 23.49 in Calm   -999 mph 59% 0.00 in
23:15 53.4 °F 38.5 °F 23.49 in Calm   -999 mph 57% 0.00 in
23:31 52.5 °F 38.6 °F 23.48 in Calm   -999 mph 59% 0.00 in
23:46 52.2 °F 38.7 °F 23.48 in Calm   -999 mph 60% 0.00 in
Big Bear CA Weather